Liguria — IRKJ — position and weather

sailwx.info

Track history (hours):
 
Tides and Currents Weather Stations Pressure Air Temp Water Temp Dewpoint Dewpoint Depression Visibility Wind Speed Wind Dir Waves Ship Positions

Liguria

Last reported at 2015-Mar-31 06:33 UTC. Time now 2015-Mar-31 06:46 UTC.
Position N 44°18' E 008°29'.

Length 30 m.

Type: Tug. MMSI: 247228500.

Date/timePositionNaut miles runAvg speedWind from/ knotsBaromVisibWave heightAir tempDewpointWater temp
2015-Mar-31 06:33N 44°18' E 008°29'0 0.0
2015-Mar-31 05:33N 44°18' E 008°29'0 0.3
2015-Mar-31 04:28N 44°19' E 008°30'0 0.4
2015-Mar-31 03:33N 44°18' E 008°29'0 0.0
2015-Mar-30 11:32N 44°18' E 008°29'0 0.0
2015-Mar-30 10:32N 44°18' E 008°29'0 0.0
2015-Mar-30 09:32N 44°18' E 008°29'0 0.3
2015-Mar-30 08:33N 44°19' E 008°30'0 0.1
2015-Mar-30 07:33N 44°19' E 008°29'0 0.2
2015-Mar-30 06:29N 44°18' E 008°29'0 0.0
2015-Mar-30 05:29N 44°18' E 008°29'0 0.0
2015-Mar-30 04:29N 44°18' E 008°29'0 0.0
2015-Mar-29 12:31N 44°18' E 008°29'0 0.0
2015-Mar-29 11:25N 44°18' E 008°29'0 0.0
2015-Mar-29 10:31N 44°18' E 008°29'0 0.0
2015-Mar-29 09:31N 44°18' E 008°29'0 0.0
2015-Mar-29 08:31N 44°18' E 008°29'0 0.0
2015-Mar-29 07:31N 44°18' E 008°29'0 0.0
2015-Mar-29 06:31N 44°18' E 008°29'0 0.0
2015-Mar-29 05:31N 44°18' E 008°29'0 0.0
2015-Mar-29 04:31N 44°18' E 008°29'0 0.0
2015-Mar-28 12:30N 44°18' E 008°29'0 0.0
2015-Mar-28 11:30N 44°18' E 008°29'0 0.0
2015-Mar-28 10:24N 44°18' E 008°29'0 0.0
2015-Mar-28 09:30N 44°18' E 008°29'0 0.0
2015-Mar-28 08:24N 44°18' E 008°29'0 0.0
2015-Mar-28 07:30N 44°18' E 008°29'0 0.0
2015-Mar-28 06:24N 44°18' E 008°29'0 0.0
2015-Mar-28 05:30N 44°18' E 008°29'0 0.0
2015-Mar-28 04:30N 44°18' E 008°29'0 0.0
2015-Mar-28 03:24N 44°18' E 008°29'0 0.0
2015-Mar-28 02:30N 44°18' E 008°29'0 0.0
2015-Mar-28 01:30N 44°18' E 008°29'0 0.0
2015-Mar-28 00:30N 44°18' E 008°29'0 0.0
2015-Mar-27 23:30N 44°18' E 008°29'0 0.0
2015-Mar-27 16:20N 44°18' E 008°29'2 2.8
2015-Mar-27 15:32N 44°17' E 008°28'0 0.1
2015-Mar-27 14:28N 44°17' E 008°28'2 2.3
2015-Mar-27 13:28N 44°18' E 008°29'0 0.0
2015-Mar-27 12:28N 44°18' E 008°29'0 0.5
2015-Mar-27 11:33N 44°19' E 008°30'0 0.4
2015-Mar-27 10:30N 44°18' E 008°29'0 0.0
2015-Mar-27 09:15N 44°18' E 008°29'0 0.0
2015-Mar-27 08:33N 44°18' E 008°29'0 0.0
2015-Mar-27 07:33N 44°18' E 008°29'0 0.0
2015-Mar-27 06:33N 44°18' E 008°29'0 0.4
2015-Mar-27 05:28N 44°19' E 008°30'0 0.4
2015-Mar-27 04:30N 44°18' E 008°29'1 0.0
2015-Mar-25 20:05N 44°19' E 008°30'0 0.6
2015-Mar-25 19:33N 44°19' E 008°30'0 0.4
2015-Mar-25 18:31N 44°18' E 008°29'0 0.0
2015-Mar-25 17:31N 44°18' E 008°29'0 0.0
2015-Mar-25 16:31N 44°18' E 008°29'0 0.0
2015-Mar-25 15:25N 44°18' E 008°29'1 0.7
2015-Mar-25 14:33N 44°19' E 008°30'0 0.2
2015-Mar-25 13:33N 44°19' E 008°30'0 0.3
2015-Mar-25 12:29N 44°18' E 008°29'0 0.0
2015-Mar-25 11:29N 44°18' E 008°29'0 0.0
2015-Mar-25 10:29N 44°18' E 008°29'0 0.0
2015-Mar-25 09:23N 44°18' E 008°29'0 0.0
2015-Mar-25 08:29N 44°18' E 008°29'0 0.0
2015-Mar-25 07:29N 44°18' E 008°29'2 1.7
2015-Mar-25 06:33N 44°17' E 008°29'1 1.1
2015-Mar-25 05:33N 44°16' E 008°28'3 0.2
2015-Mar-24 18:31N 44°18' E 008°29'0 0.0
2015-Mar-24 17:30N 44°18' E 008°29'0 0.0
2015-Mar-24 16:31N 44°18' E 008°29'0 0.0
2015-Mar-24 15:31N 44°18' E 008°29'0 0.0
2015-Mar-24 14:31N 44°18' E 008°29'0 0.0
2015-Mar-24 13:31N 44°18' E 008°29'0 0.0
2015-Mar-24 12:31N 44°18' E 008°29'0 0.0
2015-Mar-24 11:30N 44°18' E 008°29'0 0.0
2015-Mar-24 10:30N 44°18' E 008°29'2 0.0
2015-Mar-22 09:12N 44°17' E 008°28'2 0.1
2015-Mar-21 13:05N 44°18' E 008°29'1 0.2
2015-Mar-21 09:33N 44°19' E 008°30'0 0.2
2015-Mar-21 07:33N 44°18' E 008°30'  
Track history (hours):
 
Tides and Currents Weather Stations Pressure Air Temp Water Temp Dewpoint Dewpoint Depression Visibility Wind Speed Wind Dir Waves Ship Positions

Liguria

Last reported at 2015-Mar-31 06:33 UTC. Time now 2015-Mar-31 06:46 UTC.
Position N 44°18' E 008°29'.

Length 30 m.

Type: Tug. MMSI: 247228500.

Date/timePositionNaut miles runAvg speedWind from/ knotsBaromVisibWave heightAir tempDewpointWater temp
2015-Mar-31 06:33N 44°18' E 008°29'0 0.0
2015-Mar-31 05:33N 44°18' E 008°29'0 0.3
2015-Mar-31 04:28N 44°19' E 008°30'0 0.4
2015-Mar-31 03:33N 44°18' E 008°29'0 0.0
2015-Mar-30 11:32N 44°18' E 008°29'0 0.0
2015-Mar-30 10:32N 44°18' E 008°29'0 0.0
2015-Mar-30 09:32N 44°18' E 008°29'0 0.3
2015-Mar-30 08:33N 44°19' E 008°30'0 0.1
2015-Mar-30 07:33N 44°19' E 008°29'0 0.2
2015-Mar-30 06:29N 44°18' E 008°29'0 0.0
2015-Mar-30 05:29N 44°18' E 008°29'0 0.0
2015-Mar-30 04:29N 44°18' E 008°29'0 0.0
2015-Mar-29 12:31N 44°18' E 008°29'0 0.0
2015-Mar-29 11:25N 44°18' E 008°29'0 0.0
2015-Mar-29 10:31N 44°18' E 008°29'0 0.0
2015-Mar-29 09:31N 44°18' E 008°29'0 0.0
2015-Mar-29 08:31N 44°18' E 008°29'0 0.0
2015-Mar-29 07:31N 44°18' E 008°29'0 0.0
2015-Mar-29 06:31N 44°18' E 008°29'0 0.0
2015-Mar-29 05:31N 44°18' E 008°29'0 0.0
2015-Mar-29 04:31N 44°18' E 008°29'0 0.0
2015-Mar-28 12:30N 44°18' E 008°29'0 0.0
2015-Mar-28 11:30N 44°18' E 008°29'0 0.0
2015-Mar-28 10:24N 44°18' E 008°29'0 0.0
2015-Mar-28 09:30N 44°18' E 008°29'0 0.0
2015-Mar-28 08:24N 44°18' E 008°29'0 0.0
2015-Mar-28 07:30N 44°18' E 008°29'0 0.0
2015-Mar-28 06:24N 44°18' E 008°29'0 0.0
2015-Mar-28 05:30N 44°18' E 008°29'0 0.0
2015-Mar-28 04:30N 44°18' E 008°29'0 0.0
2015-Mar-28 03:24N 44°18' E 008°29'0 0.0
2015-Mar-28 02:30N 44°18' E 008°29'0 0.0
2015-Mar-28 01:30N 44°18' E 008°29'0 0.0
2015-Mar-28 00:30N 44°18' E 008°29'0 0.0
2015-Mar-27 23:30N 44°18' E 008°29'0 0.0
2015-Mar-27 16:20N 44°18' E 008°29'2 2.8
2015-Mar-27 15:32N 44°17' E 008°28'0 0.1
2015-Mar-27 14:28N 44°17' E 008°28'2 2.3
2015-Mar-27 13:28N 44°18' E 008°29'0 0.0
2015-Mar-27 12:28N 44°18' E 008°29'0 0.5
2015-Mar-27 11:33N 44°19' E 008°30'0 0.4
2015-Mar-27 10:30N 44°18' E 008°29'0 0.0
2015-Mar-27 09:15N 44°18' E 008°29'0 0.0
2015-Mar-27 08:33N 44°18' E 008°29'0 0.0
2015-Mar-27 07:33N 44°18' E 008°29'0 0.0
2015-Mar-27 06:33N 44°18' E 008°29'0 0.4
2015-Mar-27 05:28N 44°19' E 008°30'0 0.4
2015-Mar-27 04:30N 44°18' E 008°29'1 0.0
2015-Mar-25 20:05N 44°19' E 008°30'0 0.6
2015-Mar-25 19:33N 44°19' E 008°30'0 0.4
2015-Mar-25 18:31N 44°18' E 008°29'0 0.0
2015-Mar-25 17:31N 44°18' E 008°29'0 0.0
2015-Mar-25 16:31N 44°18' E 008°29'0 0.0
2015-Mar-25 15:25N 44°18' E 008°29'1 0.7
2015-Mar-25 14:33N 44°19' E 008°30'0 0.2
2015-Mar-25 13:33N 44°19' E 008°30'0 0.3
2015-Mar-25 12:29N 44°18' E 008°29'0 0.0
2015-Mar-25 11:29N 44°18' E 008°29'0 0.0
2015-Mar-25 10:29N 44°18' E 008°29'0 0.0
2015-Mar-25 09:23N 44°18' E 008°29'0 0.0
2015-Mar-25 08:29N 44°18' E 008°29'0 0.0
2015-Mar-25 07:29N 44°18' E 008°29'2 1.7
2015-Mar-25 06:33N 44°17' E 008°29'1 1.1
2015-Mar-25 05:33N 44°16' E 008°28'3 0.2
2015-Mar-24 18:31N 44°18' E 008°29'0 0.0
2015-Mar-24 17:30N 44°18' E 008°29'0 0.0
2015-Mar-24 16:31N 44°18' E 008°29'0 0.0
2015-Mar-24 15:31N 44°18' E 008°29'0 0.0
2015-Mar-24 14:31N 44°18' E 008°29'0 0.0
2015-Mar-24 13:31N 44°18' E 008°29'0 0.0
2015-Mar-24 12:31N 44°18' E 008°29'0 0.0
2015-Mar-24 11:30N 44°18' E 008°29'0 0.0
2015-Mar-24 10:30N 44°18' E 008°29'2 0.0
2015-Mar-22 09:12N 44°17' E 008°28'2 0.1
2015-Mar-21 13:05N 44°18' E 008°29'1 0.2
2015-Mar-21 09:33N 44°19' E 008°30'0 0.2
2015-Mar-21 07:33N 44°18' E 008°30'  

Dump ship's entire track history